createdAt,value
2023-03-16T00:01:08.684Z,2.10
2023-03-16T00:03:36.501Z,2.50
2023-03-16T00:06:03.740Z,2.30
2023-03-16T00:08:30.335Z,2.10
2023-03-16T00:10:57.233Z,2.43
2023-03-16T00:13:24.849Z,2.30
2023-03-16T00:15:55.683Z,2.13
2023-03-16T00:18:27.213Z,2.40
2023-03-16T00:20:58.909Z,2.27
2023-03-16T00:23:29.310Z,2.37
2023-03-16T00:25:59.787Z,2.60
2023-03-16T00:28:27.917Z,2.30
2023-03-16T00:30:59.197Z,2.37
2023-03-16T00:33:26.859Z,2.13
2023-03-16T00:36:02.130Z,2.20
2023-03-16T00:38:32.171Z,2.40
2023-03-16T00:40:58.952Z,2.60
2023-03-16T00:43:27.233Z,2.47
2023-03-16T00:46:06.929Z,2.60
2023-03-16T00:48:35.247Z,2.10
2023-03-16T00:51:07.892Z,2.37
2023-03-16T00:53:36.161Z,2.70
2023-03-16T00:56:04.489Z,2.60
2023-03-16T00:58:36.065Z,3.00
2023-03-16T01:01:04.791Z,2.70
2023-03-16T01:03:32.471Z,2.90
2023-03-16T01:06:04.600Z,2.90
2023-03-16T01:08:33.080Z,3.10
2023-03-16T01:11:06.213Z,3.10
2023-03-16T01:13:33.010Z,3.53
2023-03-16T01:16:00.434Z,3.13
2023-03-16T01:18:28.387Z,3.17
2023-03-16T01:20:54.989Z,3.27
2023-03-16T01:23:23.087Z,3.30
2023-03-16T01:25:58.609Z,3.17
2023-03-16T01:28:28.309Z,3.17
2023-03-16T01:31:04.157Z,3.10
2023-03-16T01:33:33.650Z,3.40
2023-03-16T01:36:04.170Z,3.47
2023-03-16T01:38:39.666Z,3.50
2023-03-16T01:41:07.582Z,3.63
2023-03-16T01:43:37.521Z,3.60
2023-03-16T01:46:07.275Z,3.13
2023-03-16T01:48:45.657Z,3.23
2023-03-16T01:51:21.286Z,3.20
2023-03-16T01:53:53.012Z,3.50
2023-03-16T01:56:25.745Z,3.53
2023-03-16T01:58:58.664Z,3.80
2023-03-16T02:01:29.196Z,3.90
2023-03-16T02:04:29.262Z,3.70
2023-03-16T02:07:00.404Z,3.67
2023-03-16T02:09:29.750Z,3.90
2023-03-16T02:11:57.175Z,4.00
2023-03-16T02:14:25.600Z,3.57
2023-03-16T02:16:52.800Z,3.97
2023-03-16T02:19:35.580Z,3.70
2023-03-16T02:22:06.607Z,4.17
2023-03-16T02:24:34.735Z,4.03
2023-03-16T02:27:06.586Z,4.00
2023-03-16T02:29:44.942Z,3.83
2023-03-16T02:32:13.716Z,4.90
2023-03-16T02:34:42.112Z,4.07
2023-03-16T02:37:10.371Z,4.20
2023-03-16T02:39:36.990Z,4.10
2023-03-16T02:42:04.957Z,4.67
2023-03-16T02:44:35.209Z,4.73
2023-03-16T02:47:11.367Z,4.40
2023-03-16T02:49:41.424Z,4.27
2023-03-16T02:52:08.944Z,4.10
2023-03-16T02:54:35.864Z,4.17
2023-03-16T02:57:02.924Z,4.40
2023-03-16T02:59:31.292Z,3.93
2023-03-16T03:02:04.203Z,3.70
2023-03-16T03:04:33.076Z,4.20
2023-03-16T03:07:04.739Z,3.87
2023-03-16T03:09:35.863Z,4.07
2023-03-16T03:12:02.681Z,3.70
2023-03-16T03:14:29.533Z,3.60
2023-03-16T03:16:57.216Z,2.90
2023-03-16T03:19:24.249Z,3.50
2023-03-16T03:21:51.030Z,3.20
2023-03-16T03:24:18.751Z,3.20
2023-03-16T03:26:47.132Z,3.20
2023-03-16T03:29:19.614Z,2.90
2023-03-16T03:31:46.271Z,3.17
2023-03-16T03:34:13.762Z,2.93
2023-03-16T03:36:41.511Z,3.40
2023-03-16T03:39:08.200Z,3.30
2023-03-16T03:41:36.141Z,3.43
2023-03-16T03:44:04.489Z,3.60
2023-03-16T03:46:31.502Z,3.37
2023-03-16T03:49:03.626Z,3.80
2023-03-16T03:51:33.153Z,3.50
2023-03-16T03:54:09.581Z,3.50
2023-03-16T03:56:45.547Z,3.67
2023-03-16T03:59:15.437Z,4.07
2023-03-16T04:02:03.266Z,3.53
2023-03-16T04:04:57.666Z,3.30
2023-03-16T04:07:24.286Z,3.70
2023-03-16T04:09:54.461Z,3.63
2023-03-16T04:12:29.032Z,3.20
2023-03-16T04:14:56.274Z,3.60
2023-03-16T04:17:24.261Z,3.73
2023-03-16T04:19:52.094Z,3.70
2023-03-16T04:22:19.215Z,3.97
2023-03-16T04:24:47.631Z,3.83
2023-03-16T04:27:14.465Z,3.73
2023-03-16T04:29:41.199Z,3.63
2023-03-16T04:32:08.132Z,3.83
2023-03-16T04:34:35.965Z,4.00
2023-03-16T04:37:05.598Z,4.00
2023-03-16T04:39:34.612Z,4.63
2023-03-16T04:42:01.745Z,4.90
2023-03-16T04:44:28.519Z,4.13
2023-03-16T04:46:55.829Z,4.87
2023-03-16T04:49:24.846Z,4.97
2023-03-16T04:51:51.481Z,4.47
2023-03-16T04:54:19.672Z,5.07
2023-03-16T04:56:46.335Z,5.07
2023-03-16T04:59:27.574Z,4.43
2023-03-16T05:02:05.454Z,4.67
2023-03-16T05:04:34.497Z,5.10
2023-03-16T05:07:02.204Z,5.00
2023-03-16T05:09:33.751Z,5.13
2023-03-16T05:12:00.738Z,4.70
2023-03-16T05:14:27.520Z,4.77
2023-03-16T05:17:33.134Z,5.30
2023-03-16T05:19:59.774Z,4.47
2023-03-16T05:22:27.443Z,4.90
2023-03-16T05:25:15.143Z,4.93
2023-03-16T05:27:46.510Z,5.87
2023-03-16T05:30:20.030Z,5.37
2023-03-16T05:32:47.278Z,5.20
2023-03-16T05:35:14.341Z,5.70
2023-03-16T05:37:42.077Z,5.03
2023-03-16T05:40:17.814Z,5.97
2023-03-16T05:42:55.552Z,6.13
2023-03-16T05:45:24.227Z,5.93
2023-03-16T05:48:05.720Z,5.67
2023-03-16T05:50:35.169Z,5.90
2023-03-16T05:53:01.854Z,5.37
2023-03-16T05:55:29.384Z,5.83
2023-03-16T05:57:59.930Z,5.93
2023-03-16T06:00:27.804Z,5.80
2023-03-16T06:03:05.912Z,5.77
2023-03-16T06:05:35.287Z,5.90
2023-03-16T06:08:03.066Z,6.23
2023-03-16T06:10:30.680Z,6.13
2023-03-16T06:12:58.996Z,6.67
2023-03-16T06:15:26.797Z,7.10
2023-03-16T06:17:54.742Z,6.50
2023-03-16T06:20:21.930Z,6.17
2023-03-16T06:22:48.849Z,6.70
2023-03-16T06:25:16.798Z,7.47
2023-03-16T06:27:45.775Z,7.07
2023-03-16T06:30:16.874Z,8.17
2023-03-16T06:32:45.721Z,7.53
2023-03-16T06:35:13.196Z,7.30
2023-03-16T06:37:45.128Z,7.67
2023-03-16T06:40:32.001Z,7.77
2023-03-16T06:42:58.759Z,7.40
2023-03-16T06:45:25.748Z,7.20
2023-03-16T06:47:54.645Z,8.93
2023-03-16T06:50:21.262Z,9.20
2023-03-16T06:52:47.918Z,10.33
2023-03-16T06:55:14.815Z,6.83
2023-03-16T06:57:45.175Z,8.03
2023-03-16T07:00:15.420Z,8.87
2023-03-16T07:02:43.566Z,7.20
2023-03-16T07:05:20.737Z,6.90
2023-03-16T07:07:48.044Z,6.67
2023-03-16T07:10:17.577Z,7.30
2023-03-16T07:12:44.886Z,6.90
2023-03-16T07:15:12.771Z,7.20
2023-03-16T07:17:40.219Z,6.47
2023-03-16T07:20:10.745Z,7.57
2023-03-16T07:22:39.543Z,6.57
2023-03-16T07:25:09.014Z,6.20
2023-03-16T07:27:35.633Z,6.30
2023-03-16T07:30:06.105Z,6.20
2023-03-16T07:32:36.791Z,6.53
2023-03-16T07:35:04.166Z,5.80
2023-03-16T07:37:32.409Z,6.23
2023-03-16T07:40:00.846Z,5.90
2023-03-16T07:42:27.637Z,5.70
2023-03-16T07:45:08.276Z,5.53
2023-03-16T07:47:35.252Z,5.17
2023-03-16T07:50:11.486Z,4.47
2023-03-16T07:52:41.815Z,5.37
2023-03-16T07:55:10.377Z,4.83
2023-03-16T07:57:37.017Z,5.23
2023-03-16T08:00:05.295Z,5.17
2023-03-16T08:02:39.977Z,4.67
2023-03-16T08:05:18.345Z,4.60
2023-03-16T08:07:49.155Z,5.17
2023-03-16T08:10:20.033Z,4.80
2023-03-16T08:12:53.947Z,4.77
2023-03-16T08:15:21.742Z,4.90
2023-03-16T08:17:50.754Z,4.77
2023-03-16T08:20:22.755Z,4.40
2023-03-16T08:22:49.648Z,4.87
2023-03-16T08:25:19.993Z,4.90
2023-03-16T08:27:58.813Z,4.50
2023-03-16T08:30:26.906Z,4.63
2023-03-16T08:33:10.525Z,4.93
2023-03-16T08:35:37.171Z,7.47
2023-03-16T08:38:03.796Z,9.20
2023-03-16T08:40:30.810Z,7.67
2023-03-16T08:42:58.938Z,8.03
2023-03-16T08:45:25.945Z,5.23
2023-03-16T08:47:53.771Z,7.10
2023-03-16T08:50:20.872Z,5.83
2023-03-16T08:52:49.116Z,6.13
2023-03-16T08:55:16.255Z,6.67
2023-03-16T08:57:45.151Z,6.47
2023-03-16T09:00:14.064Z,5.87
2023-03-16T09:02:53.260Z,6.17
2023-03-16T09:05:19.813Z,6.10
2023-03-16T09:07:48.883Z,7.90
2023-03-16T09:10:16.427Z,7.43
2023-03-16T09:12:43.828Z,5.63
2023-03-16T09:15:12.280Z,5.40
2023-03-16T09:17:39.860Z,6.50
2023-03-16T09:20:21.943Z,5.23
2023-03-16T09:22:49.223Z,5.40
2023-03-16T09:25:16.125Z,4.83
2023-03-16T09:27:42.819Z,4.90
2023-03-16T09:30:10.429Z,4.27
2023-03-16T09:32:37.525Z,4.97
2023-03-16T09:35:06.317Z,4.67
2023-03-16T09:37:44.761Z,4.50
2023-03-16T09:40:21.754Z,4.60
2023-03-16T09:43:13.240Z,4.43
2023-03-16T09:45:53.644Z,4.93
2023-03-16T09:48:21.484Z,4.27
2023-03-16T09:50:49.840Z,5.30
2023-03-16T09:53:27.833Z,4.30
2023-03-16T09:56:01.934Z,4.00
2023-03-16T09:58:28.545Z,3.83
2023-03-16T10:01:03.487Z,3.80
2023-03-16T10:04:01.877Z,3.83
2023-03-16T10:06:28.898Z,2.97
2023-03-16T10:09:15.371Z,3.33
2023-03-16T10:11:46.386Z,3.10
2023-03-16T10:14:23.680Z,2.80
2023-03-16T10:16:56.824Z,3.03
2023-03-16T10:19:39.270Z,3.27
2023-03-16T10:22:19.806Z,2.92
2023-03-16T10:25:20.675Z,3.15
2023-03-16T10:27:48.210Z,3.10
2023-03-16T10:30:28.695Z,2.72
2023-03-16T10:33:00.528Z,2.63
2023-03-16T10:35:30.735Z,3.10
2023-03-16T10:37:58.655Z,2.80
2023-03-16T10:40:26.400Z,3.70
2023-03-16T10:42:53.883Z,2.97
2023-03-16T10:45:27.417Z,3.13
2023-03-16T10:48:04.891Z,3.17
2023-03-16T10:50:32.825Z,5.00
2023-03-16T10:53:01.567Z,3.88
2023-03-16T10:55:40.878Z,4.38
2023-03-16T10:58:09.320Z,4.38
2023-03-16T11:00:42.120Z,5.13
2023-03-16T11:03:32.470Z,5.45
2023-03-16T11:06:05.473Z,5.60
2023-03-16T11:08:34.931Z,5.55
2023-03-16T11:11:10.019Z,5.32
2023-03-16T11:13:39.236Z,5.63
2023-03-16T11:16:14.592Z,6.32
2023-03-16T11:18:45.109Z,5.95
2023-03-16T11:21:22.370Z,5.90
2023-03-16T11:23:55.157Z,5.93
2023-03-16T11:26:33.437Z,5.50
2023-03-16T11:29:17.817Z,5.32
2023-03-16T11:31:51.037Z,5.45
2023-03-16T11:34:21.746Z,5.25
2023-03-16T11:36:56.030Z,5.72
2023-03-16T11:39:57.616Z,5.53
2023-03-16T11:42:39.440Z,5.13
2023-03-16T11:45:15.332Z,5.40
2023-03-16T11:48:01.387Z,5.45
2023-03-16T11:50:49.845Z,5.82
2023-03-16T11:53:38.453Z,5.85
2023-03-16T11:56:38.932Z,5.90
2023-03-16T11:59:14.343Z,5.87
2023-03-16T12:02:06.413Z,5.93
2023-03-16T12:04:51.121Z,5.95
2023-03-16T12:07:43.720Z,6.30
2023-03-16T12:10:26.614Z,6.43
2023-03-16T12:13:08.613Z,6.67
2023-03-16T12:15:42.555Z,5.80
2023-03-16T12:18:18.254Z,5.20
2023-03-16T12:20:53.941Z,6.67
2023-03-16T12:23:28.938Z,5.97
2023-03-16T12:25:59.951Z,4.40
2023-03-16T12:28:29.252Z,4.60
2023-03-16T12:31:03.422Z,4.88
2023-03-16T12:33:48.572Z,5.40
2023-03-16T12:36:34.225Z,5.10
2023-03-16T12:39:13.709Z,4.20
2023-03-16T12:42:26.150Z,3.65
2023-03-16T12:45:13.054Z,4.40
2023-03-16T12:48:18.605Z,4.33
2023-03-16T12:50:55.192Z,5.38
2023-03-16T12:53:27.082Z,6.72
2023-03-16T12:55:53.981Z,10.80
2023-03-16T12:58:24.026Z,14.85
2023-03-16T13:01:00.124Z,4.75
2023-03-16T13:03:28.498Z,3.83
2023-03-16T13:05:59.510Z,4.22
2023-03-16T13:08:28.937Z,6.68
2023-03-16T13:11:06.174Z,7.20
2023-03-16T13:13:34.179Z,6.13
2023-03-16T13:16:10.279Z,7.32
2023-03-16T13:18:44.617Z,6.40
2023-03-16T13:21:21.500Z,6.13
2023-03-16T13:24:14.728Z,6.20
2023-03-16T13:26:45.404Z,5.47
2023-03-16T13:29:27.414Z,6.43
2023-03-16T13:31:59.222Z,5.28
2023-03-16T13:34:37.586Z,5.32
2023-03-16T13:37:04.534Z,4.03
2023-03-16T13:39:33.696Z,6.80
2023-03-16T13:42:17.924Z,5.28
2023-03-16T13:44:45.716Z,5.28
2023-03-16T13:47:14.842Z,6.03
2023-03-16T13:49:55.767Z,5.60
2023-03-16T13:52:34.399Z,6.10
2023-03-16T13:55:15.584Z,5.68
2023-03-16T13:57:44.254Z,6.70
2023-03-16T14:00:22.058Z,6.45
2023-03-16T14:03:17.853Z,6.45
2023-03-16T14:05:45.416Z,5.90
2023-03-16T14:08:18.121Z,7.63
2023-03-16T14:10:45.615Z,6.40
2023-03-16T14:13:32.595Z,5.38
2023-03-16T14:16:02.844Z,6.05
2023-03-16T14:18:36.211Z,7.03
2023-03-16T14:21:09.811Z,6.70
2023-03-16T14:23:47.691Z,6.95
2023-03-16T14:26:18.761Z,6.78
2023-03-16T14:29:04.553Z,6.70
2023-03-16T14:31:36.629Z,7.18
2023-03-16T14:34:19.945Z,6.32
2023-03-16T14:36:46.955Z,6.28
2023-03-16T14:39:17.321Z,6.50
2023-03-16T14:41:45.263Z,5.93
2023-03-16T14:44:24.853Z,6.00
2023-03-16T14:46:54.149Z,5.68
2023-03-16T14:49:37.392Z,5.28
2023-03-16T14:52:25.519Z,5.45
2023-03-16T14:54:52.334Z,5.60
2023-03-16T14:57:19.597Z,5.50
2023-03-16T14:59:46.737Z,4.93
2023-03-16T15:02:38.589Z,4.68
2023-03-16T15:05:23.895Z,4.55
2023-03-16T15:07:54.926Z,4.85
2023-03-16T15:10:25.494Z,4.20
2023-03-16T15:13:04.100Z,4.10
2023-03-16T15:15:31.599Z,4.40
2023-03-16T15:17:59.261Z,4.45
2023-03-16T15:20:31.748Z,4.43
2023-03-16T15:22:59.907Z,4.30
2023-03-16T15:25:38.354Z,4.75
2023-03-16T15:28:22.685Z,4.67
2023-03-16T15:30:52.563Z,4.80
2023-03-16T15:33:19.731Z,5.00
2023-03-16T15:35:49.234Z,5.20
2023-03-16T15:38:20.510Z,5.00
2023-03-16T15:40:48.053Z,4.97
2023-03-16T15:43:18.257Z,4.70
2023-03-16T15:45:46.032Z,4.70
2023-03-16T15:48:13.264Z,4.90
2023-03-16T15:50:44.213Z,4.88
2023-03-16T15:53:30.617Z,4.57
2023-03-16T15:56:04.678Z,4.20
2023-03-16T15:58:34.062Z,4.15
2023-03-16T16:01:02.834Z,4.70
2023-03-16T16:03:30.183Z,4.60
2023-03-16T16:05:57.110Z,4.65
2023-03-16T16:08:23.777Z,4.53
2023-03-16T16:10:53.189Z,3.80
2023-03-16T16:13:31.187Z,4.40
2023-03-16T16:16:04.666Z,3.97
2023-03-16T16:18:36.517Z,4.40
2023-03-16T16:21:05.558Z,3.70
2023-03-16T16:23:32.988Z,3.63
2023-03-16T16:26:12.617Z,3.85
2023-03-16T16:28:39.310Z,3.93
2023-03-16T16:31:13.298Z,3.80
2023-03-16T16:33:40.251Z,4.30
2023-03-16T16:36:14.358Z,4.50
2023-03-16T16:38:41.488Z,3.87
2023-03-16T16:41:09.599Z,4.17
2023-03-16T16:43:46.946Z,3.90
2023-03-16T16:46:22.571Z,3.60
2023-03-16T16:49:01.817Z,4.40
2023-03-16T16:51:29.913Z,4.63
2023-03-16T16:53:58.480Z,4.10
2023-03-16T16:56:31.858Z,4.17
2023-03-16T16:59:01.652Z,4.13
2023-03-16T17:01:33.109Z,3.87
2023-03-16T17:04:01.324Z,4.30
2023-03-16T17:06:28.918Z,4.80
2023-03-16T17:08:55.597Z,4.57
2023-03-16T17:11:27.497Z,4.83
2023-03-16T17:13:56.989Z,4.50
2023-03-16T17:16:25.887Z,4.90
2023-03-16T17:18:53.030Z,4.60
2023-03-16T17:21:23.863Z,5.30
2023-03-16T17:23:52.761Z,4.90
2023-03-16T17:26:26.189Z,5.17
2023-03-16T17:28:58.907Z,4.47
2023-03-16T17:31:27.860Z,4.87
2023-03-16T17:33:56.993Z,5.40
2023-03-16T17:36:24.494Z,5.30
2023-03-16T17:38:51.178Z,5.17
2023-03-16T17:41:26.653Z,5.17
2023-03-16T17:43:55.755Z,5.37
2023-03-16T17:46:25.138Z,5.20
2023-03-16T17:48:52.997Z,5.07
2023-03-16T17:51:21.251Z,4.93
2023-03-16T17:53:48.586Z,5.20
2023-03-16T17:56:21.196Z,4.63
2023-03-16T17:58:51.337Z,5.57
2023-03-16T18:01:22.153Z,5.70
2023-03-16T18:03:49.583Z,5.13
2023-03-16T18:06:20.373Z,4.40
2023-03-16T18:08:48.531Z,4.80
2023-03-16T18:11:21.649Z,4.50
2023-03-16T18:13:50.850Z,4.50
2023-03-16T18:16:24.852Z,4.40
2023-03-16T18:18:53.580Z,4.37
2023-03-16T18:21:23.179Z,4.27
2023-03-16T18:23:50.470Z,4.40
2023-03-16T18:26:18.972Z,3.90
2023-03-16T18:28:46.540Z,4.43
2023-03-16T18:31:22.541Z,4.73
2023-03-16T18:33:55.811Z,4.40
2023-03-16T18:36:27.978Z,4.33
2023-03-16T18:38:55.953Z,4.10
2023-03-16T18:41:33.523Z,3.93
2023-03-16T18:44:05.690Z,4.30
2023-03-16T18:46:37.176Z,4.47
2023-03-16T18:49:18.002Z,4.10
2023-03-16T18:51:49.098Z,3.90
2023-03-16T18:54:45.444Z,4.00
2023-03-16T18:57:38.833Z,4.47
2023-03-16T19:00:06.088Z,3.77
2023-03-16T19:02:49.319Z,3.77
2023-03-16T19:05:19.391Z,3.83
2023-03-16T19:07:48.746Z,3.57
2023-03-16T19:10:27.469Z,4.07
2023-03-16T19:12:55.079Z,3.60
2023-03-16T19:15:28.404Z,3.53
2023-03-16T19:17:55.283Z,3.87
2023-03-16T19:20:28.415Z,3.30
2023-03-16T19:23:07.520Z,3.80
2023-03-16T19:25:39.783Z,3.23
2023-03-16T19:28:07.722Z,3.20
2023-03-16T19:30:35.846Z,3.30
2023-03-16T19:33:02.541Z,3.37
2023-03-16T19:35:48.606Z,2.90
2023-03-16T19:38:16.623Z,3.13
2023-03-16T19:40:43.762Z,3.30
2023-03-16T19:43:18.637Z,3.30
2023-03-16T19:45:47.258Z,2.87
2023-03-16T19:48:22.676Z,3.00
2023-03-16T19:50:51.034Z,2.83
2023-03-16T19:53:22.618Z,2.93
2023-03-16T19:55:52.213Z,2.70
2023-03-16T19:58:39.324Z,2.80
2023-03-16T20:01:13.122Z,2.90
2023-03-16T20:03:39.781Z,3.00
2023-03-16T20:06:08.610Z,3.17
2023-03-16T20:08:35.217Z,2.93
2023-03-16T20:11:07.585Z,3.00
2023-03-16T20:13:35.384Z,3.13
2023-03-16T20:16:03.465Z,2.80
2023-03-16T20:18:30.191Z,2.83
2023-03-16T20:20:57.199Z,3.00
2023-03-16T20:23:26.036Z,2.80
2023-03-16T20:26:03.047Z,2.57
2023-03-16T20:28:37.112Z,2.80
2023-03-16T20:31:08.145Z,2.80
2023-03-16T20:33:34.955Z,2.90
2023-03-16T20:36:01.858Z,3.00
2023-03-16T20:38:28.983Z,2.73
2023-03-16T20:40:56.027Z,2.80
2023-03-16T20:43:26.316Z,2.70
2023-03-16T20:45:55.519Z,2.57
2023-03-16T20:48:25.458Z,2.53
2023-03-16T20:50:53.414Z,2.83
2023-03-16T20:53:20.713Z,2.77
2023-03-16T20:55:48.740Z,2.70
2023-03-16T20:58:25.247Z,2.60
2023-03-16T21:00:55.782Z,2.60
2023-03-16T21:03:26.272Z,2.70
2023-03-16T21:05:54.484Z,3.13
2023-03-16T21:08:21.608Z,2.70
2023-03-16T21:10:51.198Z,2.50
2023-03-16T21:13:20.375Z,2.63
2023-03-16T21:15:50.035Z,3.00
2023-03-16T21:18:20.093Z,2.53
2023-03-16T21:20:48.929Z,2.73
2023-03-16T21:23:21.620Z,2.70
2023-03-16T21:26:00.618Z,2.90
2023-03-16T21:28:29.598Z,2.60
2023-03-16T21:30:57.982Z,3.43
2023-03-16T21:33:37.259Z,2.70
2023-03-16T21:36:08.169Z,2.80
2023-03-16T21:38:34.823Z,2.50
2023-03-16T21:41:01.712Z,3.00
2023-03-16T21:43:28.726Z,3.07
2023-03-16T21:45:56.983Z,3.03
2023-03-16T21:48:41.170Z,3.00
2023-03-16T21:51:16.741Z,2.63
2023-03-16T21:53:43.839Z,2.90
2023-03-16T21:56:15.416Z,2.83
2023-03-16T21:58:43.362Z,3.20
2023-03-16T22:02:00.738Z,2.87
2023-03-16T22:04:28.409Z,2.83
2023-03-16T22:06:55.275Z,3.30
2023-03-16T22:09:30.011Z,3.23
2023-03-16T22:11:56.835Z,3.20
2023-03-16T22:14:23.445Z,3.10
2023-03-16T22:16:50.401Z,3.47
2023-03-16T22:19:18.145Z,2.90
2023-03-16T22:21:45.110Z,3.20
2023-03-16T22:24:34.500Z,3.13
2023-03-16T22:27:01.537Z,3.00
2023-03-16T22:29:31.714Z,2.93
2023-03-16T22:32:04.346Z,3.10
2023-03-16T22:34:56.274Z,3.10
2023-03-16T22:37:27.143Z,3.03
2023-03-16T22:39:57.307Z,3.10
2023-03-16T22:42:32.788Z,3.07
2023-03-16T22:44:59.859Z,2.70
2023-03-16T22:47:28.851Z,3.20
2023-03-16T22:49:56.332Z,2.90
2023-03-16T22:52:28.166Z,3.00
2023-03-16T22:54:55.406Z,2.60
2023-03-16T22:57:22.847Z,2.87
2023-03-16T22:59:51.130Z,2.87
2023-03-16T23:02:30.700Z,3.00
2023-03-16T23:05:28.179Z,3.10
2023-03-16T23:07:56.233Z,3.33
2023-03-16T23:10:25.755Z,3.00
2023-03-16T23:12:54.025Z,3.50
2023-03-16T23:15:24.967Z,3.00
2023-03-16T23:17:52.542Z,3.13
2023-03-16T23:20:32.663Z,3.27
2023-03-16T23:22:59.819Z,3.00
2023-03-16T23:25:26.495Z,3.23
2023-03-16T23:27:53.369Z,3.30
2023-03-16T23:30:23.422Z,3.30
2023-03-16T23:32:52.276Z,3.00
2023-03-16T23:35:28.325Z,3.13
2023-03-16T23:37:55.773Z,3.23
2023-03-16T23:40:25.152Z,2.90
2023-03-16T23:42:53.984Z,3.00
2023-03-16T23:45:38.434Z,3.10
2023-03-16T23:48:07.692Z,3.20
2023-03-16T23:50:36.672Z,2.80
2023-03-16T23:53:03.734Z,3.07
2023-03-16T23:55:30.370Z,3.10
2023-03-16T23:57:57.043Z,3.17
